createdAt,value
2022-12-31T00:00:09.173Z,20.10
2022-12-31T00:02:36.306Z,19.05
2022-12-31T00:05:04.519Z,18.75
2022-12-31T00:09:57.867Z,17.92
2022-12-31T00:12:25.417Z,19.70
2022-12-31T00:14:52.172Z,17.52
2022-12-31T00:17:18.968Z,19.10
2022-12-31T00:19:45.716Z,18.00
2022-12-31T00:22:12.491Z,17.83
2022-12-31T00:24:39.339Z,16.15
2022-12-31T00:27:06.154Z,19.80
2022-12-31T00:29:32.967Z,18.63
2022-12-31T00:31:59.811Z,18.02
2022-12-31T00:34:26.640Z,18.00
2022-12-31T00:36:53.715Z,19.58
2022-12-31T00:39:20.611Z,17.08
2022-12-31T00:41:47.414Z,18.27
2022-12-31T00:44:14.593Z,17.88
2022-12-31T00:49:07.488Z,17.13
2022-12-31T00:51:34.257Z,17.60
2022-12-31T00:54:01.116Z,17.13
2022-12-31T00:56:30.160Z,18.67
2022-12-31T00:58:57.498Z,18.85
2022-12-31T01:01:29.121Z,18.20
2022-12-31T01:04:00.551Z,17.75
2022-12-31T01:06:27.428Z,18.17
2022-12-31T01:08:55.799Z,19.17
2022-12-31T01:11:23.689Z,17.45
2022-12-31T01:13:56.882Z,18.27
2022-12-31T01:16:37.244Z,16.42
2022-12-31T01:19:07.061Z,16.17
2022-12-31T01:21:35.935Z,17.35
2022-12-31T01:24:03.010Z,16.75
2022-12-31T01:26:30.230Z,17.70
2022-12-31T01:28:57.082Z,15.20
2022-12-31T01:31:24.843Z,17.15
2022-12-31T01:33:52.582Z,16.65
2022-12-31T01:36:25.884Z,15.15
2022-12-31T01:38:55.149Z,16.58
2022-12-31T01:41:28.729Z,16.67
2022-12-31T01:43:59.133Z,16.23
2022-12-31T01:46:38.037Z,16.13
2022-12-31T01:49:33.715Z,14.95
2022-12-31T01:52:13.181Z,15.27
2022-12-31T01:54:48.763Z,15.38
2022-12-31T01:57:16.883Z,15.40
2022-12-31T01:59:45.109Z,14.60
2022-12-31T02:02:13.885Z,13.57
2022-12-31T02:04:40.775Z,14.25
2022-12-31T02:07:09.124Z,15.50
2022-12-31T02:09:39.973Z,14.07
2022-12-31T02:12:08.309Z,14.50
2022-12-31T02:14:40.267Z,14.18
2022-12-31T02:17:25.591Z,13.95
2022-12-31T02:20:08.712Z,13.35
2022-12-31T02:23:11.036Z,13.60
2022-12-31T02:25:49.781Z,12.52
2022-12-31T02:28:31.540Z,12.63
2022-12-31T02:31:18.410Z,13.15
2022-12-31T02:33:51.954Z,12.82
2022-12-31T02:36:23.735Z,12.43
2022-12-31T02:38:51.379Z,11.85
2022-12-31T02:41:40.568Z,11.45
2022-12-31T02:44:27.402Z,10.43
2022-12-31T02:47:02.796Z,11.80
2022-12-31T02:49:55.554Z,11.13
2022-12-31T02:52:51.330Z,10.55
2022-12-31T02:55:42.283Z,10.45
2022-12-31T02:58:47.221Z,9.13
2022-12-31T03:01:38.549Z,9.48
2022-12-31T03:04:24.293Z,10.00
2022-12-31T03:06:52.089Z,9.80
2022-12-31T03:09:19.042Z,10.63
2022-12-31T03:12:04.576Z,10.32
2022-12-31T03:14:31.456Z,8.57
2022-12-31T03:16:58.371Z,9.75
2022-12-31T03:19:43.734Z,10.10
2022-12-31T03:22:27.998Z,10.05
2022-12-31T03:25:36.102Z,9.60
2022-12-31T03:28:06.075Z,8.50
2022-12-31T03:30:34.185Z,9.50
2022-12-31T03:33:01.969Z,9.00
2022-12-31T03:35:31.470Z,9.25
2022-12-31T03:37:58.281Z,8.77
2022-12-31T03:40:27.388Z,9.02
2022-12-31T03:42:54.558Z,8.88
2022-12-31T03:45:21.927Z,8.82
2022-12-31T03:47:49.093Z,8.07
2022-12-31T03:50:18.175Z,9.55
2022-12-31T03:52:45.453Z,7.97
2022-12-31T03:55:12.704Z,8.38
2022-12-31T03:57:39.597Z,8.25
2022-12-31T04:00:09.340Z,7.95
2022-12-31T04:02:36.439Z,9.07
2022-12-31T04:05:03.466Z,7.60
2022-12-31T04:07:30.396Z,8.02
2022-12-31T04:09:57.672Z,7.38
2022-12-31T04:12:24.818Z,8.48
2022-12-31T04:14:51.785Z,7.85
2022-12-31T04:17:18.665Z,8.98
2022-12-31T04:19:45.551Z,8.50
2022-12-31T04:22:12.436Z,7.50
2022-12-31T04:24:39.283Z,7.78
2022-12-31T04:27:07.961Z,7.50
2022-12-31T04:29:35.776Z,7.45
2022-12-31T04:32:03.489Z,9.02
2022-12-31T04:34:30.347Z,7.80
2022-12-31T04:36:57.531Z,7.15
2022-12-31T04:39:24.765Z,8.25
2022-12-31T04:41:51.993Z,8.20
2022-12-31T04:44:19.491Z,8.38
2022-12-31T04:46:46.543Z,8.18
2022-12-31T04:49:13.662Z,8.43
2022-12-31T04:51:40.575Z,7.07
2022-12-31T04:54:07.388Z,8.15
2022-12-31T04:56:36.656Z,8.38
2022-12-31T04:59:05.673Z,7.90
2022-12-31T05:01:33.508Z,8.45
2022-12-31T05:04:00.611Z,8.10
2022-12-31T05:06:27.639Z,7.80
2022-12-31T05:08:54.453Z,8.23
2022-12-31T05:11:21.507Z,8.35
2022-12-31T05:13:48.528Z,7.60
2022-12-31T05:16:15.453Z,7.47
2022-12-31T05:18:42.382Z,8.65
2022-12-31T05:21:10.539Z,8.35
2022-12-31T05:23:37.274Z,8.55
2022-12-31T05:26:04.216Z,8.32
2022-12-31T05:28:32.586Z,6.97
2022-12-31T05:31:00.635Z,8.13
2022-12-31T05:33:27.429Z,8.15
2022-12-31T05:35:54.841Z,8.30
2022-12-31T05:38:21.586Z,7.40
2022-12-31T05:40:48.375Z,8.20
2022-12-31T05:43:15.195Z,8.40
2022-12-31T05:45:42.052Z,8.00
2022-12-31T05:48:08.865Z,8.45
2022-12-31T05:50:35.628Z,8.90
2022-12-31T05:53:02.400Z,8.55
2022-12-31T05:55:29.277Z,8.95
2022-12-31T05:57:56.272Z,8.70
2022-12-31T06:00:23.074Z,8.95
2022-12-31T06:02:49.851Z,9.10
2022-12-31T06:05:19.717Z,9.60
2022-12-31T06:07:50.986Z,9.00
2022-12-31T06:10:17.902Z,9.85
2022-12-31T06:12:44.686Z,8.80
2022-12-31T06:15:11.606Z,8.70
2022-12-31T06:17:38.411Z,9.55
2022-12-31T06:20:10.620Z,10.13
2022-12-31T06:22:39.355Z,8.32
2022-12-31T06:25:06.669Z,9.18
2022-12-31T06:27:33.403Z,9.00
2022-12-31T06:30:00.187Z,9.57
2022-12-31T06:32:27.049Z,9.30
2022-12-31T06:34:53.861Z,8.82
2022-12-31T06:37:20.610Z,8.80
2022-12-31T06:39:47.457Z,8.65
2022-12-31T06:42:14.396Z,9.00
2022-12-31T06:44:41.177Z,9.15
2022-12-31T06:47:08.025Z,8.02
2022-12-31T06:49:34.782Z,9.13
2022-12-31T06:52:01.566Z,8.57
2022-12-31T06:54:28.320Z,8.45
2022-12-31T06:56:55.350Z,8.68
2022-12-31T06:59:31.351Z,9.00
2022-12-31T07:02:17.269Z,8.43
2022-12-31T07:05:10.054Z,7.95
2022-12-31T07:08:10.196Z,7.50
2022-12-31T07:10:40.157Z,8.80
2022-12-31T07:13:25.140Z,8.63
2022-12-31T07:15:58.044Z,9.32
2022-12-31T07:18:36.775Z,8.30
2022-12-31T07:21:04.069Z,7.97
2022-12-31T07:23:31.296Z,7.90
2022-12-31T07:26:10.737Z,8.70
2022-12-31T07:29:07.869Z,7.70
2022-12-31T07:31:58.814Z,8.30
2022-12-31T07:34:52.060Z,7.93
2022-12-31T07:38:02.101Z,7.38
2022-12-31T07:40:42.206Z,6.80
2022-12-31T07:43:36.254Z,6.75
2022-12-31T07:46:08.882Z,7.22
2022-12-31T07:48:35.929Z,7.50
2022-12-31T07:51:03.108Z,6.57
2022-12-31T07:53:30.027Z,7.95
2022-12-31T07:56:00.263Z,7.80
2022-12-31T07:58:48.450Z,7.40
2022-12-31T08:01:22.084Z,7.00
2022-12-31T08:04:02.954Z,8.25
2022-12-31T08:07:21.642Z,7.05
2022-12-31T08:10:18.266Z,6.05
2022-12-31T08:12:48.824Z,6.90
2022-12-31T08:15:18.636Z,5.93
2022-12-31T08:17:45.840Z,6.55
2022-12-31T08:20:17.502Z,7.17
2022-12-31T08:23:21.304Z,6.93
2022-12-31T08:25:57.315Z,6.97
2022-12-31T08:28:42.139Z,6.38
2022-12-31T08:31:16.584Z,6.60
2022-12-31T08:33:56.224Z,6.60
2022-12-31T08:36:41.373Z,7.07
2022-12-31T08:39:14.132Z,6.55
2022-12-31T08:41:45.111Z,6.90
2022-12-31T08:44:20.593Z,6.40
2022-12-31T08:47:01.711Z,6.75
2022-12-31T08:49:31.091Z,6.00
2022-12-31T08:51:59.389Z,6.53
2022-12-31T08:54:26.754Z,6.13
2022-12-31T08:57:12.244Z,6.07
2022-12-31T08:59:49.110Z,6.60
2022-12-31T09:02:33.134Z,5.60
2022-12-31T09:05:24.010Z,6.13
2022-12-31T09:08:06.688Z,5.88
2022-12-31T09:10:42.901Z,5.83
2022-12-31T09:13:22.045Z,6.17
2022-12-31T09:16:03.142Z,6.00
2022-12-31T09:18:33.356Z,5.60
2022-12-31T09:21:00.577Z,6.03
2022-12-31T09:23:28.009Z,5.40
2022-12-31T09:26:10.458Z,5.70
2022-12-31T09:28:49.243Z,4.87
2022-12-31T09:31:32.112Z,5.40
2022-12-31T09:34:16.489Z,5.30
2022-12-31T09:36:48.611Z,5.50
2022-12-31T09:39:33.128Z,4.85
2022-12-31T09:42:37.456Z,4.80
2022-12-31T09:45:28.822Z,5.00
2022-12-31T09:48:14.313Z,4.50
2022-12-31T09:51:08.553Z,4.87
2022-12-31T09:53:52.840Z,4.20
2022-12-31T09:56:57.123Z,4.90
2022-12-31T09:59:31.811Z,4.50
2022-12-31T10:02:28.686Z,4.20
2022-12-31T10:05:20.163Z,5.20
2022-12-31T10:08:14.287Z,5.80
2022-12-31T10:10:52.164Z,4.50
2022-12-31T10:13:27.765Z,4.97
2022-12-31T10:16:02.385Z,5.20
2022-12-31T10:18:56.756Z,5.50
2022-12-31T10:21:33.088Z,5.93
2022-12-31T10:24:20.224Z,5.40
2022-12-31T10:26:53.578Z,5.53
2022-12-31T10:29:32.464Z,5.10
2022-12-31T10:32:14.185Z,5.10
2022-12-31T10:35:13.490Z,5.13
2022-12-31T10:38:04.673Z,4.90
2022-12-31T10:41:20.320Z,5.00
2022-12-31T10:43:59.498Z,4.38
2022-12-31T10:46:37.218Z,4.70
2022-12-31T10:49:38.061Z,5.40
2022-12-31T10:52:22.862Z,4.47
2022-12-31T10:55:24.931Z,4.17
2022-12-31T10:58:14.961Z,4.97
2022-12-31T11:01:01.093Z,5.40
2022-12-31T11:03:57.036Z,4.23
2022-12-31T11:06:48.491Z,4.40
2022-12-31T11:09:34.811Z,4.00
2022-12-31T11:12:29.515Z,4.20
2022-12-31T11:15:22.513Z,4.07
2022-12-31T11:18:22.128Z,4.60
2022-12-31T11:21:13.842Z,4.07
2022-12-31T11:24:03.593Z,4.57
2022-12-31T11:27:01.636Z,4.50
2022-12-31T11:29:45.562Z,4.47
2022-12-31T11:32:25.260Z,3.93
2022-12-31T11:35:41.414Z,3.70
2022-12-31T11:38:22.844Z,4.50
2022-12-31T11:41:05.189Z,3.87
2022-12-31T11:43:38.477Z,4.37
2022-12-31T11:46:05.285Z,4.37
2022-12-31T11:49:01.987Z,4.10
2022-12-31T11:51:50.031Z,4.30
2022-12-31T11:54:34.327Z,4.00
2022-12-31T11:57:19.304Z,4.00
2022-12-31T11:59:47.109Z,3.77
2022-12-31T12:02:26.807Z,3.33
2022-12-31T12:04:55.248Z,4.20
2022-12-31T12:07:24.139Z,4.00
2022-12-31T12:09:54.476Z,3.70
2022-12-31T12:12:21.972Z,3.53
2022-12-31T12:14:55.287Z,3.93
2022-12-31T12:17:32.562Z,3.67
2022-12-31T12:20:08.349Z,3.70
2022-12-31T12:22:35.084Z,3.20
2022-12-31T12:25:07.926Z,4.03
2022-12-31T12:27:36.051Z,4.57
2022-12-31T12:30:23.856Z,4.37
2022-12-31T12:33:04.777Z,4.00
2022-12-31T12:35:34.778Z,3.43
2022-12-31T12:38:07.416Z,4.07
2022-12-31T12:40:35.071Z,4.10
2022-12-31T12:43:03.041Z,4.30
2022-12-31T12:45:47.674Z,3.97
2022-12-31T12:48:40.033Z,3.87
2022-12-31T12:51:24.170Z,4.40
2022-12-31T12:54:12.184Z,3.40
2022-12-31T12:57:08.078Z,3.63
2022-12-31T12:59:34.822Z,3.07
2022-12-31T13:02:23.410Z,3.57
2022-12-31T13:05:13.918Z,3.60
2022-12-31T13:08:09.729Z,4.13
2022-12-31T13:10:55.226Z,3.20
2022-12-31T13:13:43.194Z,4.07
2022-12-31T13:16:36.413Z,3.60
2022-12-31T13:19:20.116Z,3.57
2022-12-31T13:22:21.122Z,3.30
2022-12-31T13:24:50.979Z,3.70
2022-12-31T13:27:40.661Z,3.40
2022-12-31T13:30:24.987Z,3.70
2022-12-31T13:33:11.538Z,3.97
2022-12-31T13:35:48.150Z,3.20
2022-12-31T13:38:23.710Z,3.57
2022-12-31T13:41:12.276Z,3.53
2022-12-31T13:43:50.866Z,3.50
2022-12-31T13:46:33.118Z,3.30
2022-12-31T13:49:13.168Z,3.53
2022-12-31T13:51:47.863Z,3.70
2022-12-31T13:54:52.748Z,3.70
2022-12-31T13:57:31.766Z,4.63
2022-12-31T14:00:05.294Z,4.10
2022-12-31T14:02:43.495Z,3.53
2022-12-31T14:05:16.328Z,3.40
2022-12-31T14:07:54.031Z,3.90
2022-12-31T14:10:46.715Z,3.93
2022-12-31T14:13:22.577Z,3.83
2022-12-31T14:16:16.683Z,4.23
2022-12-31T14:19:12.375Z,4.33
2022-12-31T14:21:49.302Z,4.47
2022-12-31T14:24:32.105Z,3.90
2022-12-31T14:27:03.675Z,3.73
2022-12-31T14:29:42.904Z,3.40
2022-12-31T14:32:31.156Z,3.93
2022-12-31T14:35:22.620Z,4.80
2022-12-31T14:38:21.378Z,2.93
2022-12-31T14:41:28.637Z,3.87
2022-12-31T14:44:08.635Z,4.50
2022-12-31T14:46:59.410Z,4.07
2022-12-31T14:49:46.845Z,5.37
2022-12-31T14:52:16.349Z,4.50
2022-12-31T14:54:43.115Z,4.03
2022-12-31T14:57:24.905Z,3.57
2022-12-31T14:59:56.246Z,3.60
2022-12-31T15:02:34.958Z,4.67
2022-12-31T15:05:10.911Z,2.87
2022-12-31T15:08:00.241Z,2.90
2022-12-31T15:10:35.032Z,2.90
2022-12-31T15:13:38.783Z,3.10
2022-12-31T15:16:35.726Z,3.03
2022-12-31T15:19:30.758Z,3.40
2022-12-31T15:22:28.576Z,3.60
2022-12-31T15:24:55.544Z,3.67
2022-12-31T15:27:40.883Z,3.60
2022-12-31T15:30:28.143Z,3.47
2022-12-31T15:32:58.197Z,3.80
2022-12-31T15:35:29.104Z,3.70
2022-12-31T15:38:02.155Z,3.40
2022-12-31T15:40:29.901Z,3.20
2022-12-31T15:43:09.327Z,3.90
2022-12-31T15:45:41.016Z,3.43
2022-12-31T15:48:18.151Z,3.70
2022-12-31T15:50:46.336Z,3.17
2022-12-31T15:53:36.275Z,3.40
2022-12-31T15:56:03.323Z,3.10
2022-12-31T15:58:36.474Z,3.50
2022-12-31T16:01:12.982Z,3.47
2022-12-31T16:03:46.653Z,3.20
2022-12-31T16:06:15.979Z,3.63
2022-12-31T16:08:48.673Z,3.53
2022-12-31T16:11:17.241Z,3.33
2022-12-31T16:13:49.745Z,4.13
2022-12-31T16:16:29.034Z,2.90
2022-12-31T16:18:56.914Z,3.37
2022-12-31T16:21:32.700Z,4.20
2022-12-31T16:24:05.786Z,3.70
2022-12-31T16:26:49.463Z,4.30
2022-12-31T16:29:18.882Z,3.93
2022-12-31T16:31:47.365Z,4.27
2022-12-31T16:34:23.900Z,4.40
2022-12-31T16:37:04.308Z,4.17
2022-12-31T16:39:36.756Z,3.67
2022-12-31T16:42:16.609Z,3.47
2022-12-31T16:44:43.600Z,3.50
2022-12-31T16:47:16.612Z,4.20
2022-12-31T16:49:46.219Z,3.90
2022-12-31T16:52:32.602Z,4.53
2022-12-31T16:55:00.043Z,4.17
2022-12-31T16:57:30.370Z,4.10
2022-12-31T17:00:06.427Z,3.60
2022-12-31T17:02:45.692Z,3.67
2022-12-31T17:05:25.234Z,2.93
2022-12-31T17:07:52.286Z,3.27
2022-12-31T17:10:26.678Z,3.33
2022-12-31T17:15:46.503Z,3.30
2022-12-31T17:18:30.364Z,3.30
2022-12-31T17:21:06.833Z,3.33
2022-12-31T17:23:36.079Z,3.50
2022-12-31T17:26:21.716Z,3.40
2022-12-31T17:28:51.694Z,3.47
2022-12-31T17:31:41.114Z,3.03
2022-12-31T17:34:13.963Z,3.20
2022-12-31T17:36:51.352Z,2.63
2022-12-31T17:39:20.312Z,3.23
2022-12-31T17:41:49.430Z,3.90
2022-12-31T17:44:26.793Z,3.10
2022-12-31T17:46:54.099Z,2.97
2022-12-31T17:49:28.417Z,3.90
2022-12-31T17:51:55.323Z,3.47
2022-12-31T17:54:22.059Z,4.00
2022-12-31T17:56:49.631Z,3.20
2022-12-31T17:59:25.706Z,4.27
2022-12-31T18:01:52.641Z,3.43
2022-12-31T18:04:21.453Z,3.80
2022-12-31T18:06:48.949Z,3.67
2022-12-31T18:09:16.422Z,3.03
2022-12-31T18:11:44.225Z,3.73
2022-12-31T18:14:14.905Z,3.67
2022-12-31T18:16:42.254Z,4.10
2022-12-31T18:19:37.884Z,3.63
2022-12-31T18:22:01.578Z,4.00
2022-12-31T18:24:28.379Z,3.90
2022-12-31T18:26:55.456Z,4.17
2022-12-31T18:29:22.802Z,4.00
2022-12-31T18:31:50.573Z,3.57
2022-12-31T18:34:18.667Z,3.40
2022-12-31T18:36:46.061Z,3.00
2022-12-31T18:39:13.328Z,3.83
2022-12-31T18:41:45.855Z,3.60
2022-12-31T18:44:15.065Z,3.73
2022-12-31T18:46:42.255Z,3.27
2022-12-31T18:49:09.718Z,5.13
2022-12-31T18:51:36.606Z,4.17
2022-12-31T18:54:04.721Z,3.53
2022-12-31T18:56:31.931Z,3.10
2022-12-31T18:58:59.808Z,3.60
2022-12-31T19:01:37.443Z,3.80
2022-12-31T19:04:22.820Z,3.17
2022-12-31T19:06:51.844Z,4.10
2022-12-31T19:09:44.102Z,3.43
2022-12-31T19:12:05.833Z,4.10
2022-12-31T19:14:32.611Z,4.17
2022-12-31T19:19:25.879Z,3.47
2022-12-31T19:21:52.763Z,4.47
2022-12-31T19:24:22.419Z,4.60
2022-12-31T19:26:49.729Z,3.63
2022-12-31T19:29:18.761Z,4.30
2022-12-31T19:31:45.810Z,3.83
2022-12-31T19:34:13.101Z,3.63
2022-12-31T19:36:44.061Z,4.17
2022-12-31T19:39:16.163Z,4.23
2022-12-31T19:41:43.794Z,4.77
2022-12-31T19:44:20.253Z,4.40
2022-12-31T19:46:49.320Z,4.93
2022-12-31T19:49:16.260Z,3.87
2022-12-31T19:51:43.127Z,4.60
2022-12-31T19:54:12.838Z,4.23
2022-12-31T19:56:39.674Z,4.20
2022-12-31T19:59:08.435Z,3.87
2022-12-31T20:01:35.478Z,5.07
2022-12-31T20:04:02.449Z,5.07
2022-12-31T20:06:29.200Z,5.10
2022-12-31T20:08:55.965Z,4.10
2022-12-31T20:11:24.141Z,4.93
2022-12-31T20:13:54.942Z,5.57
2022-12-31T20:16:24.053Z,4.77
2022-12-31T20:18:51.057Z,5.00
2022-12-31T20:21:36.587Z,5.20
2022-12-31T20:24:03.474Z,5.47
2022-12-31T20:26:30.273Z,5.43
2022-12-31T20:28:57.059Z,5.40
2022-12-31T20:31:25.243Z,4.63
2022-12-31T20:33:54.332Z,5.73
2022-12-31T20:36:21.920Z,4.80
2022-12-31T20:38:49.137Z,5.43
2022-12-31T20:41:18.709Z,4.43
2022-12-31T20:43:45.900Z,5.83
2022-12-31T20:46:24.814Z,5.13
2022-12-31T20:48:53.566Z,5.00
2022-12-31T20:51:21.549Z,5.13
2022-12-31T20:53:50.786Z,4.30
2022-12-31T20:56:18.143Z,5.63
2022-12-31T20:58:44.906Z,5.07
2022-12-31T21:01:12.234Z,5.97
2022-12-31T21:06:28.617Z,5.47
2022-12-31T21:09:00.875Z,4.87
2022-12-31T21:11:46.577Z,4.50
2022-12-31T21:14:13.816Z,5.80
2022-12-31T21:16:40.643Z,4.83
2022-12-31T21:19:07.593Z,4.83
2022-12-31T21:21:34.463Z,4.80
2022-12-31T21:24:01.269Z,4.73
2022-12-31T21:26:29.119Z,4.80
2022-12-31T21:28:55.970Z,5.33
2022-12-31T21:31:23.017Z,4.60
2022-12-31T21:33:50.005Z,5.00
2022-12-31T21:36:16.933Z,4.50
2022-12-31T21:38:44.399Z,5.83
2022-12-31T21:41:34.848Z,5.37
2022-12-31T21:44:02.264Z,4.23
2022-12-31T21:46:29.410Z,4.53
2022-12-31T21:48:58.318Z,4.93
2022-12-31T21:51:25.812Z,5.00
2022-12-31T21:53:52.597Z,4.90
2022-12-31T21:56:21.344Z,4.23
2022-12-31T21:59:31.656Z,4.80
2022-12-31T22:02:17.325Z,4.30
2022-12-31T22:05:02.259Z,4.07
2022-12-31T22:07:29.376Z,4.50
2022-12-31T22:09:56.245Z,3.80
2022-12-31T22:12:23.187Z,3.43
2022-12-31T22:15:14.900Z,4.23
2022-12-31T22:17:36.826Z,3.80
2022-12-31T22:22:50.773Z,4.53
2022-12-31T22:25:17.524Z,3.83
2022-12-31T22:28:04.323Z,4.70
2022-12-31T22:30:31.817Z,4.60
2022-12-31T22:32:58.886Z,5.07
2022-12-31T22:35:25.816Z,4.30
2022-12-31T22:37:59.000Z,4.03
2022-12-31T22:40:27.067Z,4.23
2022-12-31T22:42:55.587Z,4.60
2022-12-31T22:45:22.412Z,4.10
2022-12-31T22:47:49.176Z,5.10
2022-12-31T22:50:16.030Z,4.40
2022-12-31T22:52:42.784Z,4.70
2022-12-31T22:55:10.146Z,4.50
2022-12-31T22:57:37.082Z,3.80
2022-12-31T23:00:10.042Z,4.23
2022-12-31T23:02:41.448Z,4.30
2022-12-31T23:05:15.223Z,4.23
2022-12-31T23:07:43.163Z,5.27
2022-12-31T23:10:29.282Z,7.03
2022-12-31T23:12:56.075Z,10.27
2022-12-31T23:15:41.506Z,12.70
2022-12-31T23:18:26.797Z,13.67
2022-12-31T23:21:12.239Z,13.70
2022-12-31T23:23:39.041Z,12.97
2022-12-31T23:26:06.970Z,12.03
2022-12-31T23:28:33.778Z,9.80
2022-12-31T23:31:06.354Z,10.97
2022-12-31T23:33:33.200Z,9.43
2022-12-31T23:36:07.502Z,8.47
2022-12-31T23:38:34.614Z,9.37
2022-12-31T23:41:01.446Z,9.40
2022-12-31T23:43:28.240Z,7.80
2022-12-31T23:45:55.037Z,7.60
2022-12-31T23:48:21.924Z,8.00
2022-12-31T23:50:53.394Z,8.47
2022-12-31T23:53:22.216Z,6.83
2022-12-31T23:55:48.997Z,7.43
2022-12-31T23:58:16.344Z,6.90
